sensor_id;sensor_type;location;lat;lon;timestamp;pressure;altitude;pressure_sealevel;temperature;humidity
17649;BME280;8943;51.110;-4.158;2023-12-20T00:01:54;102166.25;;;14.28;52.42
17649;BME280;8943;51.110;-4.158;2023-12-20T00:04:27;102168.06;;;14.27;52.99
17649;BME280;8943;51.110;-4.158;2023-12-20T00:07:01;102162.03;;;14.24;53.68
17649;BME280;8943;51.110;-4.158;2023-12-20T00:09:37;102151.00;;;14.28;52.96
17649;BME280;8943;51.110;-4.158;2023-12-20T00:12:06;102149.41;;;14.26;52.64
17649;BME280;8943;51.110;-4.158;2023-12-20T00:14:34;102150.16;;;14.28;52.07
17649;BME280;8943;51.110;-4.158;2023-12-20T00:20:40;102160.50;;;14.20;52.50
17649;BME280;8943;51.110;-4.158;2023-12-20T00:23:13;102152.47;;;14.20;52.74
17649;BME280;8943;51.110;-4.158;2023-12-20T00:25:42;102124.63;;;14.22;52.96
17649;BME280;8943;51.110;-4.158;2023-12-20T00:28:10;102125.66;;;14.20;52.96
17649;BME280;8943;51.110;-4.158;2023-12-20T00:30:38;102122.25;;;14.17;53.66
17649;BME280;8943;51.110;-4.158;2023-12-20T00:33:07;102115.16;;;14.16;53.37
17649;BME280;8943;51.110;-4.158;2023-12-20T00:35:35;102116.13;;;14.15;53.68
17649;BME280;8943;51.110;-4.158;2023-12-20T00:38:03;102123.50;;;14.12;53.60
17649;BME280;8943;51.110;-4.158;2023-12-20T00:40:35;102119.97;;;14.11;54.09
17649;BME280;8943;51.110;-4.158;2023-12-20T00:43:17;102148.59;;;14.11;53.16
17649;BME280;8943;51.110;-4.158;2023-12-20T00:45:46;102148.59;;;14.11;53.72
17649;BME280;8943;51.110;-4.158;2023-12-20T00:48:16;102161.88;;;14.12;53.78
17649;BME280;8943;51.110;-4.158;2023-12-20T00:50:49;102137.66;;;14.14;54.32
17649;BME280;8943;51.110;-4.158;2023-12-20T00:53:17;102144.84;;;14.13;54.05
17649;BME280;8943;51.110;-4.158;2023-12-20T00:55:48;102158.91;;;14.17;53.88
17649;BME280;8943;51.110;-4.158;2023-12-20T00:58:32;102143.00;;;14.14;53.09
17649;BME280;8943;51.110;-4.158;2023-12-20T01:01:04;102150.97;;;14.15;53.23
17649;BME280;8943;51.110;-4.158;2023-12-20T01:03:35;102137.56;;;14.15;53.64
17649;BME280;8943;51.110;-4.158;2023-12-20T01:06:04;102151.72;;;14.17;53.34
17649;BME280;8943;51.110;-4.158;2023-12-20T01:08:33;102135.53;;;14.19;53.79
17649;BME280;8943;51.110;-4.158;2023-12-20T01:11:28;102159.34;;;14.24;52.80
17649;BME280;8943;51.110;-4.158;2023-12-20T01:14:26;102147.88;;;14.22;53.15
17649;BME280;8943;51.110;-4.158;2023-12-20T01:17:34;102138.88;;;14.23;52.95
17649;BME280;8943;51.110;-4.158;2023-12-20T01:20:10;102138.03;;;14.22;53.32
17649;BME280;8943;51.110;-4.158;2023-12-20T01:23:03;102132.06;;;14.31;52.29
17649;BME280;8943;51.110;-4.158;2023-12-20T01:25:32;102122.28;;;14.30;53.69
17649;BME280;8943;51.110;-4.158;2023-12-20T01:28:44;102142.66;;;14.33;52.91
17649;BME280;8943;51.110;-4.158;2023-12-20T01:31:22;102130.97;;;14.34;53.02
17649;BME280;8943;51.110;-4.158;2023-12-20T01:33:58;102112.84;;;14.37;53.27
17649;BME280;8943;51.110;-4.158;2023-12-20T01:37:12;102124.09;;;14.30;53.26
17649;BME280;8943;51.110;-4.158;2023-12-20T01:39:44;102146.50;;;14.29;53.28
17649;BME280;8943;51.110;-4.158;2023-12-20T01:42:45;102110.50;;;14.33;52.54
17649;BME280;8943;51.110;-4.158;2023-12-20T01:51:57;102124.66;;;14.35;52.41
17649;BME280;8943;51.110;-4.158;2023-12-20T01:54:45;102130.59;;;14.40;52.61
17649;BME280;8943;51.110;-4.158;2023-12-20T01:57:59;102130.41;;;14.29;52.88
17649;BME280;8943;51.110;-4.158;2023-12-20T02:00:30;102142.47;;;14.36;53.17
17649;BME280;8943;51.110;-4.158;2023-12-20T02:03:07;102124.19;;;14.28;52.67
17649;BME280;8943;51.110;-4.158;2023-12-20T02:06:01;102129.16;;;14.34;52.44
17649;BME280;8943;51.110;-4.158;2023-12-20T02:16:13;102147.16;;;14.32;53.72
17649;BME280;8943;51.110;-4.158;2023-12-20T02:18:44;102129.25;;;14.33;54.33
17649;BME280;8943;51.110;-4.158;2023-12-20T02:21:14;102129.81;;;14.38;54.43
17649;BME280;8943;51.110;-4.158;2023-12-20T02:23:45;102131.53;;;14.39;54.84
17649;BME280;8943;51.110;-4.158;2023-12-20T02:26:13;102142.06;;;14.42;54.96
17649;BME280;8943;51.110;-4.158;2023-12-20T02:28:43;102133.91;;;14.43;54.74
17649;BME280;8943;51.110;-4.158;2023-12-20T02:31:12;102140.34;;;14.41;54.68
17649;BME280;8943;51.110;-4.158;2023-12-20T02:33:41;102146.44;;;14.43;55.22
17649;BME280;8943;51.110;-4.158;2023-12-20T02:36:25;102136.50;;;14.45;54.98
17649;BME280;8943;51.110;-4.158;2023-12-20T02:39:00;102154.09;;;14.49;54.39
17649;BME280;8943;51.110;-4.158;2023-12-20T02:41:49;102145.13;;;14.50;55.03
17649;BME280;8943;51.110;-4.158;2023-12-20T02:44:21;102133.31;;;14.53;55.50
17649;BME280;8943;51.110;-4.158;2023-12-20T02:46:49;102128.81;;;14.53;55.42
17649;BME280;8943;51.110;-4.158;2023-12-20T02:49:18;102141.16;;;14.56;55.32
17649;BME280;8943;51.110;-4.158;2023-12-20T02:51:46;102130.31;;;14.57;55.58
17649;BME280;8943;51.110;-4.158;2023-12-20T02:54:27;102137.19;;;14.61;55.12
17649;BME280;8943;51.110;-4.158;2023-12-20T02:56:56;102139.69;;;14.64;55.57
17649;BME280;8943;51.110;-4.158;2023-12-20T02:59:25;102137.00;;;14.64;55.84
17649;BME280;8943;51.110;-4.158;2023-12-20T03:01:56;102140.00;;;14.73;55.34
17649;BME280;8943;51.110;-4.158;2023-12-20T03:04:26;102152.69;;;14.71;55.62
17649;BME280;8943;51.110;-4.158;2023-12-20T03:07:00;102149.88;;;14.72;55.87
17649;BME280;8943;51.110;-4.158;2023-12-20T03:09:54;102143.47;;;14.75;55.08
17649;BME280;8943;51.110;-4.158;2023-12-20T03:12:41;102116.63;;;14.75;55.84
17649;BME280;8943;51.110;-4.158;2023-12-20T03:15:10;102135.94;;;14.80;55.73
17649;BME280;8943;51.110;-4.158;2023-12-20T03:17:38;102141.94;;;14.83;55.30
17649;BME280;8943;51.110;-4.158;2023-12-20T03:20:09;102118.69;;;14.84;55.45
17649;BME280;8943;51.110;-4.158;2023-12-20T03:22:39;102122.84;;;14.88;55.29
17649;BME280;8943;51.110;-4.158;2023-12-20T03:25:15;102124.47;;;14.90;55.51
17649;BME280;8943;51.110;-4.158;2023-12-20T03:27:49;102138.53;;;14.94;54.82
17649;BME280;8943;51.110;-4.158;2023-12-20T03:30:33;102122.63;;;14.91;55.49
17649;BME280;8943;51.110;-4.158;2023-12-20T03:33:01;102115.56;;;14.90;55.62
17649;BME280;8943;51.110;-4.158;2023-12-20T03:35:29;102134.13;;;14.93;55.48
17649;BME280;8943;51.110;-4.158;2023-12-20T03:37:58;102128.97;;;14.90;55.44
17649;BME280;8943;51.110;-4.158;2023-12-20T03:41:01;102135.44;;;15.00;54.72
17649;BME280;8943;51.110;-4.158;2023-12-20T03:43:29;102109.75;;;14.96;55.43
17649;BME280;8943;51.110;-4.158;2023-12-20T03:45:58;102141.97;;;14.96;55.44
17649;BME280;8943;51.110;-4.158;2023-12-20T03:48:27;102137.34;;;14.98;56.01
17649;BME280;8943;51.110;-4.158;2023-12-20T03:50:58;102106.88;;;14.99;55.73
17649;BME280;8943;51.110;-4.158;2023-12-20T03:53:50;102095.16;;;15.00;55.65
17649;BME280;8943;51.110;-4.158;2023-12-20T03:56:36;102100.31;;;15.03;55.20
17649;BME280;8943;51.110;-4.158;2023-12-20T03:59:07;102102.34;;;15.00;55.26
17649;BME280;8943;51.110;-4.158;2023-12-20T04:01:43;102104.81;;;15.03;55.50
17649;BME280;8943;51.110;-4.158;2023-12-20T04:04:13;102104.81;;;15.03;55.82
17649;BME280;8943;51.110;-4.158;2023-12-20T04:06:44;102110.41;;;15.00;55.62
17649;BME280;8943;51.110;-4.158;2023-12-20T04:09:15;102101.50;;;14.99;55.60
17649;BME280;8943;51.110;-4.158;2023-12-20T04:11:45;102097.50;;;14.92;55.48
17649;BME280;8943;51.110;-4.158;2023-12-20T04:14:17;102107.50;;;14.90;55.93
17649;BME280;8943;51.110;-4.158;2023-12-20T04:16:45;102120.28;;;14.86;55.79
17649;BME280;8943;51.110;-4.158;2023-12-20T04:19:25;102112.09;;;14.88;55.67
17649;BME280;8943;51.110;-4.158;2023-12-20T04:21:54;102103.75;;;14.80;56.52
17649;BME280;8943;51.110;-4.158;2023-12-20T04:24:22;102114.16;;;14.84;55.29
17649;BME280;8943;51.110;-4.158;2023-12-20T04:26:54;102102.25;;;14.76;56.10
17649;BME280;8943;51.110;-4.158;2023-12-20T04:29:22;102102.44;;;14.73;56.54
17649;BME280;8943;51.110;-4.158;2023-12-20T04:31:50;102111.25;;;14.75;56.54
17649;BME280;8943;51.110;-4.158;2023-12-20T04:34:19;102096.09;;;14.74;56.61
17649;BME280;8943;51.110;-4.158;2023-12-20T04:45:05;102097.50;;;14.92;56.80
17649;BME280;8943;51.110;-4.158;2023-12-20T04:47:33;102105.69;;;15.03;56.83
17649;BME280;8943;51.110;-4.158;2023-12-20T04:50:03;102098.19;;;15.08;56.22
17649;BME280;8943;51.110;-4.158;2023-12-20T04:52:38;102087.44;;;15.08;56.05
17649;BME280;8943;51.110;-4.158;2023-12-20T04:55:10;102096.22;;;15.10;55.46
17649;BME280;8943;51.110;-4.158;2023-12-20T04:57:43;102086.53;;;15.08;55.42
17649;BME280;8943;51.110;-4.158;2023-12-20T05:00:14;102102.56;;;15.09;55.56
17649;BME280;8943;51.110;-4.158;2023-12-20T05:02:42;102107.16;;;15.07;56.07
17649;BME280;8943;51.110;-4.158;2023-12-20T05:05:12;102094.84;;;15.05;56.30
17649;BME280;8943;51.110;-4.158;2023-12-20T05:07:42;102096.88;;;15.01;56.54
17649;BME280;8943;51.110;-4.158;2023-12-20T05:10:17;102096.22;;;14.98;55.90
17649;BME280;8943;51.110;-4.158;2023-12-20T05:12:47;102093.56;;;14.85;56.71
17649;BME280;8943;51.110;-4.158;2023-12-20T05:15:20;102078.19;;;14.87;57.37
17649;BME280;8943;51.110;-4.158;2023-12-20T05:17:53;102076.69;;;14.83;57.09
17649;BME280;8943;51.110;-4.158;2023-12-20T05:20:21;102076.91;;;14.80;57.08
17649;BME280;8943;51.110;-4.158;2023-12-20T05:22:52;102084.84;;;14.81;57.18
17649;BME280;8943;51.110;-4.158;2023-12-20T05:25:23;102068.53;;;14.84;57.53
17649;BME280;8943;51.110;-4.158;2023-12-20T05:27:53;102065.00;;;14.84;57.41
17649;BME280;8943;51.110;-4.158;2023-12-20T05:30:24;102062.31;;;14.84;57.64
17649;BME280;8943;51.110;-4.158;2023-12-20T05:32:55;102060.38;;;14.86;57.49
17649;BME280;8943;51.110;-4.158;2023-12-20T05:35:24;102064.03;;;14.85;57.46
17649;BME280;8943;51.110;-4.158;2023-12-20T05:37:56;102064.13;;;14.83;57.52
17649;BME280;8943;51.110;-4.158;2023-12-20T05:40:32;102059.63;;;14.84;57.28
17649;BME280;8943;51.110;-4.158;2023-12-20T05:43:04;102057.50;;;14.89;57.15
17649;BME280;8943;51.110;-4.158;2023-12-20T05:45:48;102091.09;;;14.94;57.17
17649;BME280;8943;51.110;-4.158;2023-12-20T05:48:22;102063.69;;;15.02;56.58
17649;BME280;8943;51.110;-4.158;2023-12-20T05:50:54;102064.22;;;15.07;56.38
17649;BME280;8943;51.110;-4.158;2023-12-20T05:53:39;102066.69;;;15.10;56.82
17649;BME280;8943;51.110;-4.158;2023-12-20T05:56:07;102046.94;;;15.11;56.82
17649;BME280;8943;51.110;-4.158;2023-12-20T05:58:36;102063.69;;;15.15;56.80
17649;BME280;8943;51.110;-4.158;2023-12-20T06:01:15;102059.16;;;15.15;56.62
17649;BME280;8943;51.110;-4.158;2023-12-20T06:03:44;102035.00;;;15.15;56.59
17649;BME280;8943;51.110;-4.158;2023-12-20T06:06:23;102029.50;;;15.17;57.09
17649;BME280;8943;51.110;-4.158;2023-12-20T06:08:51;102047.47;;;15.16;57.10
17649;BME280;8943;51.110;-4.158;2023-12-20T06:11:31;102039.31;;;15.18;56.94
17649;BME280;8943;51.110;-4.158;2023-12-20T06:14:05;102077.75;;;15.18;57.52
17649;BME280;8943;51.110;-4.158;2023-12-20T06:16:39;102044.16;;;15.13;56.92
17649;BME280;8943;51.110;-4.158;2023-12-20T06:19:08;102056.06;;;15.09;56.73
17649;BME280;8943;51.110;-4.158;2023-12-20T06:25:21;102064.78;;;14.87;57.99
17649;BME280;8943;51.110;-4.158;2023-12-20T06:27:56;102052.75;;;14.80;58.36
17649;BME280;8943;51.110;-4.158;2023-12-20T06:30:28;102044.06;;;14.76;58.55
17649;BME280;8943;51.110;-4.158;2023-12-20T06:32:59;102066.50;;;14.75;58.54
17649;BME280;8943;51.110;-4.158;2023-12-20T06:35:30;102067.78;;;14.70;58.42
17649;BME280;8943;51.110;-4.158;2023-12-20T06:38:03;102061.78;;;14.66;58.32
17649;BME280;8943;51.110;-4.158;2023-12-20T06:40:31;102060.16;;;14.63;58.58
17649;BME280;8943;51.110;-4.158;2023-12-20T06:43:04;102064.34;;;14.67;58.66
17649;BME280;8943;51.110;-4.158;2023-12-20T06:45:57;102061.66;;;14.67;58.62
17649;BME280;8943;51.110;-4.158;2023-12-20T06:48:29;102063.16;;;14.72;58.43
17649;BME280;8943;51.110;-4.158;2023-12-20T06:51:04;102040.72;;;14.73;58.78
17649;BME280;8943;51.110;-4.158;2023-12-20T06:53:43;102055.84;;;14.74;59.31
17649;BME280;8943;51.110;-4.158;2023-12-20T06:56:20;102066.81;;;14.83;58.10
17649;BME280;8943;51.110;-4.158;2023-12-20T06:59:03;102055.31;;;14.81;58.65
17649;BME280;8943;51.110;-4.158;2023-12-20T07:01:31;102029.34;;;14.82;58.94
17649;BME280;8943;51.110;-4.158;2023-12-20T07:04:03;102037.00;;;14.75;58.65
17649;BME280;8943;51.110;-4.158;2023-12-20T07:06:32;102046.66;;;14.65;58.91
17649;BME280;8943;51.110;-4.158;2023-12-20T07:09:00;102048.13;;;14.56;58.89
17649;BME280;8943;51.110;-4.158;2023-12-20T07:11:28;102015.41;;;14.51;59.37
17649;BME280;8943;51.110;-4.158;2023-12-20T07:13:57;102014.84;;;14.46;59.55
17649;BME280;8943;51.110;-4.158;2023-12-20T07:16:29;102016.75;;;14.44;59.38
17649;BME280;8943;51.110;-4.158;2023-12-20T07:18:59;102018.50;;;14.45;59.59
17649;BME280;8943;51.110;-4.158;2023-12-20T07:21:29;102036.97;;;14.50;59.59
17649;BME280;8943;51.110;-4.158;2023-12-20T07:23:57;102039.34;;;14.54;59.90
17649;BME280;8943;51.110;-4.158;2023-12-20T07:26:26;102029.16;;;14.59;59.97
17649;BME280;8943;51.110;-4.158;2023-12-20T07:28:55;102026.03;;;14.65;59.97
17649;BME280;8943;51.110;-4.158;2023-12-20T07:31:28;102036.34;;;14.72;59.89
17649;BME280;8943;51.110;-4.158;2023-12-20T07:33:57;102030.75;;;14.75;60.09
17649;BME280;8943;51.110;-4.158;2023-12-20T07:36:26;102048.38;;;14.79;59.64
17649;BME280;8943;51.110;-4.158;2023-12-20T07:38:55;102043.94;;;14.78;59.94
17649;BME280;8943;51.110;-4.158;2023-12-20T07:41:24;102051.13;;;14.77;59.66
17649;BME280;8943;51.110;-4.158;2023-12-20T07:43:59;102044.72;;;14.80;60.22
17649;BME280;8943;51.110;-4.158;2023-12-20T07:46:28;102053.38;;;14.83;60.12
17649;BME280;8943;51.110;-4.158;2023-12-20T07:49:01;102067.38;;;14.88;60.17
17649;BME280;8943;51.110;-4.158;2023-12-20T07:51:41;102061.88;;;14.90;59.38
17649;BME280;8943;51.110;-4.158;2023-12-20T07:54:14;102051.59;;;14.84;59.42
17649;BME280;8943;51.110;-4.158;2023-12-20T07:56:43;102055.00;;;14.86;59.48
17649;BME280;8943;51.110;-4.158;2023-12-20T07:59:11;102054.16;;;14.85;59.73
17649;BME280;8943;51.110;-4.158;2023-12-20T08:01:56;102052.66;;;14.81;59.56
17649;BME280;8943;51.110;-4.158;2023-12-20T08:04:25;102037.72;;;14.77;59.68
17649;BME280;8943;51.110;-4.158;2023-12-20T08:06:55;102050.50;;;14.74;59.53
17649;BME280;8943;51.110;-4.158;2023-12-20T08:09:26;102050.72;;;14.71;59.86
17649;BME280;8943;51.110;-4.158;2023-12-20T08:11:54;102061.66;;;14.67;59.81
17649;BME280;8943;51.110;-4.158;2023-12-20T08:14:23;102058.97;;;14.67;60.42
17649;BME280;8943;51.110;-4.158;2023-12-20T08:16:51;102048.56;;;14.63;60.10
17649;BME280;8943;51.110;-4.158;2023-12-20T08:19:20;102065.31;;;14.66;60.98
17649;BME280;8943;51.110;-4.158;2023-12-20T08:21:48;102060.59;;;14.70;60.68
17649;BME280;8943;51.110;-4.158;2023-12-20T08:24:17;102076.47;;;14.73;60.79
17649;BME280;8943;51.110;-4.158;2023-12-20T08:26:47;102067.16;;;14.79;60.93
17649;BME280;8943;51.110;-4.158;2023-12-20T08:29:15;102057.69;;;14.86;60.75
17649;BME280;8943;51.110;-4.158;2023-12-20T08:31:44;102076.69;;;14.83;60.52
17649;BME280;8943;51.110;-4.158;2023-12-20T08:34:13;102073.69;;;14.87;60.40
17649;BME280;8943;51.110;-4.158;2023-12-20T08:36:42;102083.88;;;14.95;60.71
17649;BME280;8943;51.110;-4.158;2023-12-20T08:39:11;102080.34;;;14.94;59.78
17649;BME280;8943;51.110;-4.158;2023-12-20T08:41:46;102108.03;;;14.95;59.54
17649;BME280;8943;51.110;-4.158;2023-12-20T08:44:20;102073.25;;;14.81;59.94
17649;BME280;8943;51.110;-4.158;2023-12-20T08:46:49;102071.63;;;14.78;60.23
17649;BME280;8943;51.110;-4.158;2023-12-20T08:49:17;102068.88;;;14.80;60.62
17649;BME280;8943;51.110;-4.158;2023-12-20T08:51:45;102064.47;;;14.79;60.63
17649;BME280;8943;51.110;-4.158;2023-12-20T08:54:14;102064.22;;;14.82;60.33
17649;BME280;8943;51.110;-4.158;2023-12-20T08:56:43;102072.81;;;14.87;60.06
17649;BME280;8943;51.110;-4.158;2023-12-20T08:59:13;102078.19;;;14.87;60.87
17649;BME280;8943;51.110;-4.158;2023-12-20T09:01:41;102088.59;;;14.91;60.29
17649;BME280;8943;51.110;-4.158;2023-12-20T09:07:21;102066.16;;;14.92;60.31
17649;BME280;8943;51.110;-4.158;2023-12-20T09:09:50;102059.31;;;14.88;60.43
17649;BME280;8943;51.110;-4.158;2023-12-20T09:12:29;102111.16;;;14.89;60.44
17649;BME280;8943;51.110;-4.158;2023-12-20T09:14:59;102073.78;;;14.86;60.41
17649;BME280;8943;51.110;-4.158;2023-12-20T09:17:29;102080.56;;;14.79;60.61
17649;BME280;8943;51.110;-4.158;2023-12-20T09:20:08;102094.94;;;14.78;60.06
17649;BME280;8943;51.110;-4.158;2023-12-20T09:22:37;102077.31;;;14.74;60.78
17649;BME280;8943;51.110;-4.158;2023-12-20T09:25:06;102086.78;;;14.79;61.15
17649;BME280;8943;51.110;-4.158;2023-12-20T09:27:35;102082.03;;;14.83;60.73
17649;BME280;8943;51.110;-4.158;2023-12-20T09:30:07;102088.50;;;14.80;60.83
17649;BME280;8943;51.110;-4.158;2023-12-20T09:32:36;102072.94;;;14.85;60.89
17649;BME280;8943;51.110;-4.158;2023-12-20T09:35:12;102059.09;;;14.79;61.11
17649;BME280;8943;51.110;-4.158;2023-12-20T09:37:42;102075.28;;;14.77;61.07
17649;BME280;8943;51.110;-4.158;2023-12-20T09:40:13;102073.06;;;14.84;61.00
17649;BME280;8943;51.110;-4.158;2023-12-20T09:42:48;102077.44;;;14.85;61.43
17649;BME280;8943;51.110;-4.158;2023-12-20T09:45:20;102063.59;;;14.91;61.28
17649;BME280;8943;51.110;-4.158;2023-12-20T09:47:52;102059.72;;;14.95;61.33
17649;BME280;8943;51.110;-4.158;2023-12-20T09:50:22;102054.78;;;15.02;61.32
17649;BME280;8943;51.110;-4.158;2023-12-20T09:52:52;102064.44;;;15.04;61.01
17649;BME280;8943;51.110;-4.158;2023-12-20T09:55:21;102067.66;;;15.09;60.67
17649;BME280;8943;51.110;-4.158;2023-12-20T09:57:50;102062.94;;;15.13;60.73
17649;BME280;8943;51.110;-4.158;2023-12-20T10:00:22;102069.59;;;15.20;60.84
17649;BME280;8943;51.110;-4.158;2023-12-20T10:02:56;102048.50;;;15.27;60.44
17649;BME280;8943;51.110;-4.158;2023-12-20T10:05:27;102044.00;;;15.27;60.69
17649;BME280;8943;51.110;-4.158;2023-12-20T10:07:56;102045.94;;;15.38;60.66
17649;BME280;8943;51.110;-4.158;2023-12-20T10:10:25;102064.16;;;15.45;60.17
17649;BME280;8943;51.110;-4.158;2023-12-20T10:13:09;102067.16;;;15.41;60.16
17649;BME280;8943;51.110;-4.158;2023-12-20T10:15:41;102047.19;;;15.45;60.16
17649;BME280;8943;51.110;-4.158;2023-12-20T10:18:09;102033.88;;;15.43;60.13
17649;BME280;8943;51.110;-4.158;2023-12-20T10:20:40;102020.53;;;15.42;59.94
17649;BME280;8943;51.110;-4.158;2023-12-20T10:23:09;102034.50;;;15.47;59.67
17649;BME280;8943;51.110;-4.158;2023-12-20T10:25:37;102020.19;;;15.46;59.90
17649;BME280;8943;51.110;-4.158;2023-12-20T10:28:11;102061.47;;;15.45;59.06
17649;BME280;8943;51.110;-4.158;2023-12-20T10:30:43;102043.97;;;15.40;59.66
17649;BME280;8943;51.110;-4.158;2023-12-20T10:33:11;102037.34;;;15.33;60.02
17649;BME280;8943;51.110;-4.158;2023-12-20T10:35:40;102040.34;;;15.28;60.29
17649;BME280;8943;51.110;-4.158;2023-12-20T10:38:15;102032.84;;;15.33;60.27
17649;BME280;8943;51.110;-4.158;2023-12-20T10:40:45;102050.00;;;15.31;60.71
17649;BME280;8943;51.110;-4.158;2023-12-20T10:43:15;102035.00;;;15.28;60.63
17649;BME280;8943;51.110;-4.158;2023-12-20T10:45:47;102012.66;;;15.28;60.44
17649;BME280;8943;51.110;-4.158;2023-12-20T10:48:16;102007.03;;;15.31;61.09
17649;BME280;8943;51.110;-4.158;2023-12-20T10:50:49;101989.41;;;15.39;61.14
17649;BME280;8943;51.110;-4.158;2023-12-20T10:53:17;101977.56;;;15.42;61.24
17649;BME280;8943;51.110;-4.158;2023-12-20T10:55:49;101978.16;;;15.58;61.02
17649;BME280;8943;51.110;-4.158;2023-12-20T10:58:21;101971.81;;;15.59;60.98
17649;BME280;8943;51.110;-4.158;2023-12-20T11:00:56;101971.53;;;15.75;60.53
17649;BME280;8943;51.110;-4.158;2023-12-20T11:03:35;101986.84;;;15.86;59.92
17649;BME280;8943;51.110;-4.158;2023-12-20T11:06:10;101980.16;;;15.91;59.36
17649;BME280;8943;51.110;-4.158;2023-12-20T11:08:47;101973.22;;;16.00;59.83
17649;BME280;8943;51.110;-4.158;2023-12-20T11:11:23;101984.47;;;16.05;59.88
17649;BME280;8943;51.110;-4.158;2023-12-20T11:13:57;101992.69;;;16.15;59.47
17649;BME280;8943;51.110;-4.158;2023-12-20T11:16:31;101975.84;;;16.24;59.15
17649;BME280;8943;51.110;-4.158;2023-12-20T11:19:14;101975.63;;;16.27;58.85
17649;BME280;8943;51.110;-4.158;2023-12-20T11:21:43;101948.09;;;16.23;58.68
17649;BME280;8943;51.110;-4.158;2023-12-20T11:24:16;101952.41;;;16.26;58.47
17649;BME280;8943;51.110;-4.158;2023-12-20T11:26:47;101963.75;;;16.30;58.56
17649;BME280;8943;51.110;-4.158;2023-12-20T11:29:32;101943.97;;;16.31;58.62
17649;BME280;8943;51.110;-4.158;2023-12-20T11:32:30;101966.09;;;16.34;57.86
17649;BME280;8943;51.110;-4.158;2023-12-20T11:35:18;101965.50;;;16.31;57.91
17649;BME280;8943;51.110;-4.158;2023-12-20T11:37:48;101949.81;;;16.25;58.04
17649;BME280;8943;51.110;-4.158;2023-12-20T11:40:18;101950.06;;;16.21;57.98
17649;BME280;8943;51.110;-4.158;2023-12-20T11:42:55;101937.81;;;16.17;57.79
17649;BME280;8943;51.110;-4.158;2023-12-20T11:45:24;101928.78;;;16.18;57.59
17649;BME280;8943;51.110;-4.158;2023-12-20T11:47:58;101938.47;;;16.21;57.73
17649;BME280;8943;51.110;-4.158;2023-12-20T11:50:27;101936.34;;;16.13;58.21
17649;BME280;8943;51.110;-4.158;2023-12-20T11:52:56;101920.22;;;16.13;58.14
17649;BME280;8943;51.110;-4.158;2023-12-20T11:55:25;101910.22;;;16.15;57.97
17649;BME280;8943;51.110;-4.158;2023-12-20T11:57:57;101911.78;;;16.18;57.76
17649;BME280;8943;51.110;-4.158;2023-12-20T12:00:26;101892.34;;;16.14;58.27
17649;BME280;8943;51.110;-4.158;2023-12-20T12:02:58;101896.88;;;16.14;58.53
17649;BME280;8943;51.110;-4.158;2023-12-20T12:05:28;101878.19;;;16.12;58.77
17649;BME280;8943;51.110;-4.158;2023-12-20T12:07:58;101827.69;;;16.05;59.07
17649;BME280;8943;51.110;-4.158;2023-12-20T12:10:26;101838.44;;;16.05;59.20
17649;BME280;8943;51.110;-4.158;2023-12-20T12:12:55;101871.06;;;16.00;58.58
17649;BME280;8943;51.110;-4.158;2023-12-20T12:15:28;101881.81;;;16.00;58.96
17649;BME280;8943;51.110;-4.158;2023-12-20T12:18:00;101870.47;;;15.96;58.77
17649;BME280;8943;51.110;-4.158;2023-12-20T12:20:29;101884.41;;;16.02;58.93
17649;BME280;8943;51.110;-4.158;2023-12-20T12:23:27;101888.44;;;16.07;58.33
17649;BME280;8943;51.110;-4.158;2023-12-20T12:25:59;101882.94;;;16.09;57.78
17649;BME280;8943;51.110;-4.158;2023-12-20T12:28:48;101847.13;;;16.08;56.84
17649;BME280;8943;51.110;-4.158;2023-12-20T12:31:18;101840.41;;;16.03;57.97
17649;BME280;8943;51.110;-4.158;2023-12-20T12:33:48;101863.13;;;15.99;57.91
17649;BME280;8943;51.110;-4.158;2023-12-20T12:36:17;101863.13;;;15.99;57.96
17649;BME280;8943;51.110;-4.158;2023-12-20T12:38:45;101874.00;;;15.97;58.28
17649;BME280;8943;51.110;-4.158;2023-12-20T12:41:15;101861.06;;;16.02;58.36
17649;BME280;8943;51.110;-4.158;2023-12-20T12:43:54;101848.69;;;16.00;58.24
17649;BME280;8943;51.110;-4.158;2023-12-20T12:46:30;101870.09;;;16.01;58.74
17649;BME280;8943;51.110;-4.158;2023-12-20T12:49:03;101847.63;;;16.13;58.39
17649;BME280;8943;51.110;-4.158;2023-12-20T12:51:33;101856.53;;;16.14;58.75
17649;BME280;8943;51.110;-4.158;2023-12-20T12:54:45;101875.25;;;16.15;58.10
17649;BME280;8943;51.110;-4.158;2023-12-20T12:57:28;101850.66;;;16.09;58.43
17649;BME280;8943;51.110;-4.158;2023-12-20T13:00:20;101853.97;;;16.01;58.45
17649;BME280;8943;51.110;-4.158;2023-12-20T13:03:02;101836.94;;;15.89;58.95
17649;BME280;8943;51.110;-4.158;2023-12-20T13:05:57;101815.09;;;15.83;59.41
17649;BME280;8943;51.110;-4.158;2023-12-20T13:08:28;101821.09;;;15.86;58.97
17649;BME280;8943;51.110;-4.158;2023-12-20T13:10:58;101806.25;;;15.81;59.13
17649;BME280;8943;51.110;-4.158;2023-12-20T13:13:47;101794.53;;;15.70;59.26
17649;BME280;8943;51.110;-4.158;2023-12-20T13:17:04;101817.50;;;15.75;58.74
17649;BME280;8943;51.110;-4.158;2023-12-20T13:26:26;101787.59;;;15.33;60.39
17649;BME280;8943;51.110;-4.158;2023-12-20T13:28:57;101806.84;;;15.27;61.09
17649;BME280;8943;51.110;-4.158;2023-12-20T13:31:28;101801.81;;;15.22;61.18
17649;BME280;8943;51.110;-4.158;2023-12-20T13:33:57;101792.31;;;15.18;61.38
17649;BME280;8943;51.110;-4.158;2023-12-20T13:36:25;101812.28;;;15.14;61.49
17649;BME280;8943;51.110;-4.158;2023-12-20T13:38:54;101799.22;;;15.09;61.11
17649;BME280;8943;51.110;-4.158;2023-12-20T13:41:26;101771.09;;;15.02;61.35
17649;BME280;8943;51.110;-4.158;2023-12-20T13:43:54;101765.13;;;14.99;61.29
17649;BME280;8943;51.110;-4.158;2023-12-20T13:46:23;101789.91;;;15.02;61.25
17649;BME280;8943;51.110;-4.158;2023-12-20T13:48:56;101783.81;;;15.00;61.05
17649;BME280;8943;51.110;-4.158;2023-12-20T13:51:27;101762.09;;;15.03;61.08
17649;BME280;8943;51.110;-4.158;2023-12-20T13:53:56;101744.03;;;15.05;60.92
17649;BME280;8943;51.110;-4.158;2023-12-20T13:56:25;101752.81;;;15.07;61.26
17649;BME280;8943;51.110;-4.158;2023-12-20T13:58:54;101752.38;;;15.13;61.03
17649;BME280;8943;51.110;-4.158;2023-12-20T14:01:23;101741.38;;;15.16;61.18
17649;BME280;8943;51.110;-4.158;2023-12-20T14:03:51;101748.25;;;15.20;61.10